sensor_id;sensor_type;location;lat;lon;timestamp;P1;durP1;ratioP1;P2;durP2;ratioP2
41667;SDS011;27356;50.920;5.350;2023-02-18T00:00:53;14.32;;;10.60;;
41667;SDS011;27356;50.920;5.350;2023-02-18T00:03:19;12.20;;;10.15;;
41667;SDS011;27356;50.920;5.350;2023-02-18T00:05:44;14.18;;;10.77;;
41667;SDS011;27356;50.920;5.350;2023-02-18T00:08:10;11.25;;;9.98;;
41667;SDS011;27356;50.920;5.350;2023-02-18T00:10:36;11.98;;;10.23;;
41667;SDS011;27356;50.920;5.350;2023-02-18T00:13:04;16.85;;;10.02;;
41667;SDS011;27356;50.920;5.350;2023-02-18T00:15:30;11.95;;;10.60;;
41667;SDS011;27356;50.920;5.350;2023-02-18T00:17:55;12.82;;;10.20;;
41667;SDS011;27356;50.920;5.350;2023-02-18T00:20:21;16.42;;;10.18;;
41667;SDS011;27356;50.920;5.350;2023-02-18T00:22:47;14.45;;;11.15;;
41667;SDS011;27356;50.920;5.350;2023-02-18T00:25:12;13.95;;;10.65;;
41667;SDS011;27356;50.920;5.350;2023-02-18T00:27:38;13.27;;;11.18;;
41667;SDS011;27356;50.920;5.350;2023-02-18T00:30:04;14.13;;;10.30;;
41667;SDS011;27356;50.920;5.350;2023-02-18T00:32:30;13.98;;;10.48;;
41667;SDS011;27356;50.920;5.350;2023-02-18T00:34:56;13.73;;;10.63;;
41667;SDS011;27356;50.920;5.350;2023-02-18T00:37:22;14.38;;;11.32;;
41667;SDS011;27356;50.920;5.350;2023-02-18T00:39:47;16.38;;;13.20;;
41667;SDS011;27356;50.920;5.350;2023-02-18T00:42:13;16.35;;;11.68;;
41667;SDS011;27356;50.920;5.350;2023-02-18T00:44:39;17.02;;;12.02;;
41667;SDS011;27356;50.920;5.350;2023-02-18T00:47:04;19.05;;;12.77;;
41667;SDS011;27356;50.920;5.350;2023-02-18T00:49:30;24.88;;;14.32;;
41667;SDS011;27356;50.920;5.350;2023-02-18T00:51:59;18.65;;;13.27;;
41667;SDS011;27356;50.920;5.350;2023-02-18T00:54:25;18.15;;;12.93;;
41667;SDS011;27356;50.920;5.350;2023-02-18T00:56:51;21.13;;;14.73;;
41667;SDS011;27356;50.920;5.350;2023-02-18T00:59:16;19.92;;;13.38;;
41667;SDS011;27356;50.920;5.350;2023-02-18T01:01:42;17.20;;;12.77;;
41667;SDS011;27356;50.920;5.350;2023-02-18T01:04:08;18.65;;;13.05;;
41667;SDS011;27356;50.920;5.350;2023-02-18T01:06:33;16.83;;;12.35;;
41667;SDS011;27356;50.920;5.350;2023-02-18T01:08:59;20.23;;;11.90;;
41667;SDS011;27356;50.920;5.350;2023-02-18T01:11:25;15.82;;;11.70;;
41667;SDS011;27356;50.920;5.350;2023-02-18T01:13:50;17.85;;;11.90;;
41667;SDS011;27356;50.920;5.350;2023-02-18T01:16:16;18.75;;;12.15;;
41667;SDS011;27356;50.920;5.350;2023-02-18T01:18:42;17.70;;;11.02;;
41667;SDS011;27356;50.920;5.350;2023-02-18T01:21:08;18.20;;;12.68;;
41667;SDS011;27356;50.920;5.350;2023-02-18T01:23:35;17.77;;;11.60;;
41667;SDS011;27356;50.920;5.350;2023-02-18T01:26:02;17.17;;;12.65;;
41667;SDS011;27356;50.920;5.350;2023-02-18T01:28:27;18.83;;;12.57;;
41667;SDS011;27356;50.920;5.350;2023-02-18T01:30:53;18.52;;;12.30;;
41667;SDS011;27356;50.920;5.350;2023-02-18T01:33:19;20.02;;;12.00;;
41667;SDS011;27356;50.920;5.350;2023-02-18T01:35:45;18.83;;;11.90;;
41667;SDS011;27356;50.920;5.350;2023-02-18T01:38:11;16.40;;;11.73;;
41667;SDS011;27356;50.920;5.350;2023-02-18T01:40:42;21.20;;;12.73;;
41667;SDS011;27356;50.920;5.350;2023-02-18T01:43:13;20.15;;;11.52;;
41667;SDS011;27356;50.920;5.350;2023-02-18T01:48:19;19.90;;;11.77;;
41667;SDS011;27356;50.920;5.350;2023-02-18T01:50:53;18.30;;;11.15;;
41667;SDS011;27356;50.920;5.350;2023-02-18T01:53:25;16.90;;;11.50;;
41667;SDS011;27356;50.920;5.350;2023-02-18T01:55:56;12.90;;;9.68;;
41667;SDS011;27356;50.920;5.350;2023-02-18T01:58:22;20.17;;;11.23;;
41667;SDS011;27356;50.920;5.350;2023-02-18T02:00:48;16.65;;;10.43;;
41667;SDS011;27356;50.920;5.350;2023-02-18T02:03:14;14.32;;;9.43;;
41667;SDS011;27356;50.920;5.350;2023-02-18T02:05:40;11.63;;;8.07;;
41667;SDS011;27356;50.920;5.350;2023-02-18T02:08:05;13.73;;;7.95;;
41667;SDS011;27356;50.920;5.350;2023-02-18T02:10:40;11.82;;;7.25;;
41667;SDS011;27356;50.920;5.350;2023-02-18T02:13:38;8.82;;;5.47;;
41667;SDS011;27356;50.920;5.350;2023-02-18T02:18:51;5.07;;;3.85;;
41667;SDS011;27356;50.920;5.350;2023-02-18T02:27:34;3.88;;;3.15;;
41667;SDS011;27356;50.920;5.350;2023-02-18T02:35:40;3.88;;;2.95;;
41667;SDS011;27356;50.920;5.350;2023-02-18T02:41:06;4.55;;;2.85;;
41667;SDS011;27356;50.920;5.350;2023-02-18T02:44:06;3.65;;;2.40;;
41667;SDS011;27356;50.920;5.350;2023-02-18T02:47:13;2.30;;;2.03;;
41667;SDS011;27356;50.920;5.350;2023-02-18T02:50:00;2.72;;;2.47;;
41667;SDS011;27356;50.920;5.350;2023-02-18T02:52:43;3.88;;;2.58;;
41667;SDS011;27356;50.920;5.350;2023-02-18T02:55:12;5.25;;;2.55;;
41667;SDS011;27356;50.920;5.350;2023-02-18T02:57:46;2.88;;;2.53;;
41667;SDS011;27356;50.920;5.350;2023-02-18T03:00:17;2.70;;;2.30;;
41667;SDS011;27356;50.920;5.350;2023-02-18T03:11:16;2.63;;;2.42;;
41667;SDS011;27356;50.920;5.350;2023-02-18T03:19:31;4.25;;;2.78;;
41667;SDS011;27356;50.920;5.350;2023-02-18T03:24:45;3.45;;;2.50;;
41667;SDS011;27356;50.920;5.350;2023-02-18T03:27:20;3.22;;;2.90;;
41667;SDS011;27356;50.920;5.350;2023-02-18T03:29:58;3.30;;;2.97;;
41667;SDS011;27356;50.920;5.350;2023-02-18T03:32:28;3.22;;;2.90;;
41667;SDS011;27356;50.920;5.350;2023-02-18T03:34:57;4.65;;;2.85;;
41667;SDS011;27356;50.920;5.350;2023-02-18T03:37:26;7.10;;;2.60;;
41667;SDS011;27356;50.920;5.350;2023-02-18T03:39:55;3.30;;;3.00;;
41667;SDS011;27356;50.920;5.350;2023-02-18T03:42:25;3.72;;;2.97;;
41667;SDS011;27356;50.920;5.350;2023-02-18T03:44:52;4.68;;;3.03;;
41667;SDS011;27356;50.920;5.350;2023-02-18T03:47:18;4.57;;;2.40;;
41667;SDS011;27356;50.920;5.350;2023-02-18T03:49:44;3.15;;;2.45;;
41667;SDS011;27356;50.920;5.350;2023-02-18T03:52:10;3.15;;;2.83;;
41667;SDS011;27356;50.920;5.350;2023-02-18T03:54:36;2.88;;;2.33;;
41667;SDS011;27356;50.920;5.350;2023-02-18T03:57:01;1.98;;;1.88;;
41667;SDS011;27356;50.920;5.350;2023-02-18T03:59:27;2.22;;;2.08;;
41667;SDS011;27356;50.920;5.350;2023-02-18T04:01:53;1.98;;;1.88;;
41667;SDS011;27356;50.920;5.350;2023-02-18T04:04:19;2.47;;;2.28;;
41667;SDS011;27356;50.920;5.350;2023-02-18T04:06:44;2.45;;;2.30;;
41667;SDS011;27356;50.920;5.350;2023-02-18T04:09:10;2.35;;;2.13;;
41667;SDS011;27356;50.920;5.350;2023-02-18T04:11:39;3.72;;;2.47;;
41667;SDS011;27356;50.920;5.350;2023-02-18T04:14:05;2.55;;;2.28;;
41667;SDS011;27356;50.920;5.350;2023-02-18T04:16:31;4.88;;;2.50;;
41667;SDS011;27356;50.920;5.350;2023-02-18T04:18:57;4.22;;;3.10;;
41667;SDS011;27356;50.920;5.350;2023-02-18T04:21:22;3.00;;;2.70;;
41667;SDS011;27356;50.920;5.350;2023-02-18T04:23:48;2.90;;;2.70;;
41667;SDS011;27356;50.920;5.350;2023-02-18T04:26:14;3.08;;;2.80;;
41667;SDS011;27356;50.920;5.350;2023-02-18T04:28:39;3.47;;;3.17;;
41667;SDS011;27356;50.920;5.350;2023-02-18T04:31:05;3.33;;;3.03;;
41667;SDS011;27356;50.920;5.350;2023-02-18T04:33:31;4.90;;;3.25;;
41667;SDS011;27356;50.920;5.350;2023-02-18T04:35:57;3.70;;;3.40;;
41667;SDS011;27356;50.920;5.350;2023-02-18T04:38:22;4.05;;;3.70;;
41667;SDS011;27356;50.920;5.350;2023-02-18T04:40:48;3.72;;;3.42;;
41667;SDS011;27356;50.920;5.350;2023-02-18T04:43:14;3.58;;;3.28;;
41667;SDS011;27356;50.920;5.350;2023-02-18T04:45:39;3.95;;;3.65;;
41667;SDS011;27356;50.920;5.350;2023-02-18T04:48:05;3.75;;;3.45;;
41667;SDS011;27356;50.920;5.350;2023-02-18T04:50:31;3.78;;;3.47;;
41667;SDS011;27356;50.920;5.350;2023-02-18T04:52:57;3.50;;;2.90;;
41667;SDS011;27356;50.920;5.350;2023-02-18T04:55:23;2.92;;;2.67;;
41667;SDS011;27356;50.920;5.350;2023-02-18T04:57:48;3.10;;;2.85;;
41667;SDS011;27356;50.920;5.350;2023-02-18T05:00:15;3.67;;;2.90;;
41667;SDS011;27356;50.920;5.350;2023-02-18T05:02:42;2.88;;;2.67;;
41667;SDS011;27356;50.920;5.350;2023-02-18T05:05:09;2.80;;;2.60;;
41667;SDS011;27356;50.920;5.350;2023-02-18T05:07:36;2.60;;;2.40;;
41667;SDS011;27356;50.920;5.350;2023-02-18T05:10:01;2.70;;;2.40;;
41667;SDS011;27356;50.920;5.350;2023-02-18T05:12:28;3.05;;;2.40;;
41667;SDS011;27356;50.920;5.350;2023-02-18T05:14:53;4.45;;;2.40;;
41667;SDS011;27356;50.920;5.350;2023-02-18T05:17:19;2.50;;;2.30;;
41667;SDS011;27356;50.920;5.350;2023-02-18T05:19:45;2.22;;;2.03;;
41667;SDS011;27356;50.920;5.350;2023-02-18T05:22:10;2.42;;;2.25;;
41667;SDS011;27356;50.920;5.350;2023-02-18T05:24:36;2.20;;;2.10;;
41667;SDS011;27356;50.920;5.350;2023-02-18T05:27:02;2.25;;;2.05;;
41667;SDS011;27356;50.920;5.350;2023-02-18T05:29:28;2.85;;;1.80;;
41667;SDS011;27356;50.920;5.350;2023-02-18T05:31:53;2.47;;;2.05;;
41667;SDS011;27356;50.920;5.350;2023-02-18T05:34:19;1.73;;;1.63;;
41667;SDS011;27356;50.920;5.350;2023-02-18T05:36:44;1.83;;;1.65;;
41667;SDS011;27356;50.920;5.350;2023-02-18T05:39:10;1.77;;;1.67;;
41667;SDS011;27356;50.920;5.350;2023-02-18T05:41:36;1.70;;;1.60;;
41667;SDS011;27356;50.920;5.350;2023-02-18T05:44:01;2.60;;;1.65;;
41667;SDS011;27356;50.920;5.350;2023-02-18T05:46:46;1.70;;;1.60;;
41667;SDS011;27356;50.920;5.350;2023-02-18T05:49:12;1.80;;;1.35;;
41667;SDS011;27356;50.920;5.350;2023-02-18T05:51:38;4.57;;;1.80;;
41667;SDS011;27356;50.920;5.350;2023-02-18T05:54:04;1.73;;;1.63;;
41667;SDS011;27356;50.920;5.350;2023-02-18T05:56:30;2.63;;;1.83;;
41667;SDS011;27356;50.920;5.350;2023-02-18T05:58:55;2.75;;;1.73;;
41667;SDS011;27356;50.920;5.350;2023-02-18T06:01:21;1.75;;;1.65;;
41667;SDS011;27356;50.920;5.350;2023-02-18T06:03:47;5.88;;;2.00;;
41667;SDS011;27356;50.920;5.350;2023-02-18T06:06:12;2.15;;;2.00;;
41667;SDS011;27356;50.920;5.350;2023-02-18T06:08:38;3.45;;;2.38;;
41667;SDS011;27356;50.920;5.350;2023-02-18T06:11:04;3.38;;;2.28;;
41667;SDS011;27356;50.920;5.350;2023-02-18T06:13:30;2.88;;;2.30;;
41667;SDS011;27356;50.920;5.350;2023-02-18T06:15:56;2.40;;;2.20;;
41667;SDS011;27356;50.920;5.350;2023-02-18T06:18:22;2.72;;;2.35;;
41667;SDS011;27356;50.920;5.350;2023-02-18T06:20:47;2.13;;;1.98;;
41667;SDS011;27356;50.920;5.350;2023-02-18T06:23:13;2.08;;;1.98;;
41667;SDS011;27356;50.920;5.350;2023-02-18T06:25:40;2.65;;;1.73;;
41667;SDS011;27356;50.920;5.350;2023-02-18T06:28:06;2.92;;;1.50;;
41667;SDS011;27356;50.920;5.350;2023-02-18T06:30:31;2.42;;;1.60;;
41667;SDS011;27356;50.920;5.350;2023-02-18T06:32:57;2.42;;;1.33;;
41667;SDS011;27356;50.920;5.350;2023-02-18T06:35:23;3.53;;;1.63;;
41667;SDS011;27356;50.920;5.350;2023-02-18T06:37:48;3.17;;;1.52;;
41667;SDS011;27356;50.920;5.350;2023-02-18T06:40:14;1.80;;;1.30;;
41667;SDS011;27356;50.920;5.350;2023-02-18T06:42:40;1.20;;;1.10;;
41667;SDS011;27356;50.920;5.350;2023-02-18T06:45:06;2.20;;;1.30;;
41667;SDS011;27356;50.920;5.350;2023-02-18T06:47:32;3.38;;;1.20;;
41667;SDS011;27356;50.920;5.350;2023-02-18T06:49:58;5.85;;;1.50;;
41667;SDS011;27356;50.920;5.350;2023-02-18T06:52:24;3.25;;;1.60;;
41667;SDS011;27356;50.920;5.350;2023-02-18T06:54:49;3.55;;;1.23;;
41667;SDS011;27356;50.920;5.350;2023-02-18T06:57:15;1.92;;;1.42;;
41667;SDS011;27356;50.920;5.350;2023-02-18T06:59:41;4.60;;;1.67;;
41667;SDS011;27356;50.920;5.350;2023-02-18T07:02:06;5.30;;;1.63;;
41667;SDS011;27356;50.920;5.350;2023-02-18T07:04:36;5.57;;;1.75;;
41667;SDS011;27356;50.920;5.350;2023-02-18T07:07:01;4.20;;;2.13;;
41667;SDS011;27356;50.920;5.350;2023-02-18T07:09:27;7.35;;;1.95;;
41667;SDS011;27356;50.920;5.350;2023-02-18T07:11:52;3.78;;;2.17;;
41667;SDS011;27356;50.920;5.350;2023-02-18T07:14:18;5.03;;;1.98;;
41667;SDS011;27356;50.920;5.350;2023-02-18T07:16:44;7.35;;;2.20;;
41667;SDS011;27356;50.920;5.350;2023-02-18T07:19:10;8.50;;;2.53;;
41667;SDS011;27356;50.920;5.350;2023-02-18T07:21:35;9.13;;;2.78;;
41667;SDS011;27356;50.920;5.350;2023-02-18T07:24:01;9.38;;;1.98;;
41667;SDS011;27356;50.920;5.350;2023-02-18T07:26:27;13.65;;;2.85;;
41667;SDS011;27356;50.920;5.350;2023-02-18T07:28:53;6.85;;;2.10;;
41667;SDS011;27356;50.920;5.350;2023-02-18T07:31:18;7.88;;;2.30;;
41667;SDS011;27356;50.920;5.350;2023-02-18T07:33:44;14.35;;;2.60;;
41667;SDS011;27356;50.920;5.350;2023-02-18T07:36:10;12.25;;;3.10;;
41667;SDS011;27356;50.920;5.350;2023-02-18T07:38:35;9.90;;;3.15;;
41667;SDS011;27356;50.920;5.350;2023-02-18T07:41:01;11.15;;;2.60;;
41667;SDS011;27356;50.920;5.350;2023-02-18T07:43:27;11.00;;;1.88;;
41667;SDS011;27356;50.920;5.350;2023-02-18T07:45:52;11.38;;;2.28;;
41667;SDS011;27356;50.920;5.350;2023-02-18T07:48:18;14.00;;;2.42;;
41667;SDS011;27356;50.920;5.350;2023-02-18T07:50:44;11.85;;;2.72;;
41667;SDS011;27356;50.920;5.350;2023-02-18T07:53:11;15.73;;;1.85;;
41667;SDS011;27356;50.920;5.350;2023-02-18T07:55:38;10.77;;;2.38;;
41667;SDS011;27356;50.920;5.350;2023-02-18T07:58:29;20.20;;;2.45;;
41667;SDS011;27356;50.920;5.350;2023-02-18T08:01:03;13.60;;;2.90;;
41667;SDS011;27356;50.920;5.350;2023-02-18T08:03:30;16.80;;;2.65;;
41667;SDS011;27356;50.920;5.350;2023-02-18T08:05:57;27.27;;;2.70;;
41667;SDS011;27356;50.920;5.350;2023-02-18T08:08:25;9.63;;;2.20;;
41667;SDS011;27356;50.920;5.350;2023-02-18T08:10:54;16.23;;;2.70;;
41667;SDS011;27356;50.920;5.350;2023-02-18T08:13:21;10.15;;;2.58;;
41667;SDS011;27356;50.920;5.350;2023-02-18T08:15:47;8.18;;;2.00;;
41667;SDS011;27356;50.920;5.350;2023-02-18T08:18:14;11.05;;;1.63;;
41667;SDS011;27356;50.920;5.350;2023-02-18T08:20:45;12.95;;;2.10;;
41667;SDS011;27356;50.920;5.350;2023-02-18T08:23:12;7.97;;;2.33;;
41667;SDS011;27356;50.920;5.350;2023-02-18T08:25:38;10.40;;;1.90;;
41667;SDS011;27356;50.920;5.350;2023-02-18T08:28:04;12.13;;;2.40;;
41667;SDS011;27356;50.920;5.350;2023-02-18T08:30:30;10.77;;;2.10;;
41667;SDS011;27356;50.920;5.350;2023-02-18T08:32:56;14.07;;;3.22;;
41667;SDS011;27356;50.920;5.350;2023-02-18T08:35:22;15.52;;;3.08;;
41667;SDS011;27356;50.920;5.350;2023-02-18T08:37:48;9.25;;;2.05;;
41667;SDS011;27356;50.920;5.350;2023-02-18T08:40:14;14.50;;;2.55;;
41667;SDS011;27356;50.920;5.350;2023-02-18T08:42:40;10.05;;;2.13;;
41667;SDS011;27356;50.920;5.350;2023-02-18T08:45:06;10.23;;;2.40;;
41667;SDS011;27356;50.920;5.350;2023-02-18T08:47:32;14.07;;;2.40;;
41667;SDS011;27356;50.920;5.350;2023-02-18T08:49:58;12.90;;;2.60;;
41667;SDS011;27356;50.920;5.350;2023-02-18T08:52:24;13.23;;;2.53;;
41667;SDS011;27356;50.920;5.350;2023-02-18T08:54:50;11.50;;;2.22;;
41667;SDS011;27356;50.920;5.350;2023-02-18T08:57:16;8.98;;;2.17;;
41667;SDS011;27356;50.920;5.350;2023-02-18T08:59:41;11.88;;;2.22;;
41667;SDS011;27356;50.920;5.350;2023-02-18T09:02:08;15.90;;;1.90;;
41667;SDS011;27356;50.920;5.350;2023-02-18T09:04:38;15.23;;;2.58;;
41667;SDS011;27356;50.920;5.350;2023-02-18T09:07:04;16.45;;;2.85;;
41667;SDS011;27356;50.920;5.350;2023-02-18T09:09:30;9.75;;;1.85;;
41667;SDS011;27356;50.920;5.350;2023-02-18T09:11:56;9.13;;;1.60;;
41667;SDS011;27356;50.920;5.350;2023-02-18T09:14:22;14.65;;;2.45;;
41667;SDS011;27356;50.920;5.350;2023-02-18T09:16:48;16.02;;;2.35;;
41667;SDS011;27356;50.920;5.350;2023-02-18T09:19:14;13.55;;;2.47;;
41667;SDS011;27356;50.920;5.350;2023-02-18T09:21:40;8.77;;;1.65;;
41667;SDS011;27356;50.920;5.350;2023-02-18T09:24:06;8.98;;;1.73;;
41667;SDS011;27356;50.920;5.350;2023-02-18T09:26:32;18.08;;;2.42;;
41667;SDS011;27356;50.920;5.350;2023-02-18T09:28:57;11.05;;;2.42;;
41667;SDS011;27356;50.920;5.350;2023-02-18T09:31:24;15.50;;;2.70;;
41667;SDS011;27356;50.920;5.350;2023-02-18T09:33:52;11.70;;;2.13;;
41667;SDS011;27356;50.920;5.350;2023-02-18T09:36:22;14.43;;;2.30;;
41667;SDS011;27356;50.920;5.350;2023-02-18T09:38:49;9.82;;;2.03;;
41667;SDS011;27356;50.920;5.350;2023-02-18T09:49:37;11.30;;;1.58;;
41667;SDS011;27356;50.920;5.350;2023-02-18T09:52:16;8.82;;;1.20;;
41667;SDS011;27356;50.920;5.350;2023-02-18T09:54:47;10.32;;;1.52;;
41667;SDS011;27356;50.920;5.350;2023-02-18T10:00:06;7.55;;;1.33;;
41667;SDS011;27356;50.920;5.350;2023-02-18T10:02:57;10.10;;;1.50;;
41667;SDS011;27356;50.920;5.350;2023-02-18T10:05:36;4.85;;;1.08;;
41667;SDS011;27356;50.920;5.350;2023-02-18T10:08:16;5.55;;;1.00;;
41667;SDS011;27356;50.920;5.350;2023-02-18T10:10:50;4.43;;;1.17;;
41667;SDS011;27356;50.920;5.350;2023-02-18T10:13:17;8.07;;;1.30;;
41667;SDS011;27356;50.920;5.350;2023-02-18T10:15:45;8.15;;;1.50;;
41667;SDS011;27356;50.920;5.350;2023-02-18T10:20:50;8.57;;;1.65;;
41667;SDS011;27356;50.920;5.350;2023-02-18T10:23:18;8.80;;;1.63;;
41667;SDS011;27356;50.920;5.350;2023-02-18T10:25:45;4.82;;;1.00;;
41667;SDS011;27356;50.920;5.350;2023-02-18T10:28:12;5.82;;;1.20;;
41667;SDS011;27356;50.920;5.350;2023-02-18T10:30:41;9.40;;;1.42;;
41667;SDS011;27356;50.920;5.350;2023-02-18T10:36:04;9.40;;;1.40;;
41667;SDS011;27356;50.920;5.350;2023-02-18T10:52:19;7.43;;;1.60;;
41667;SDS011;27356;50.920;5.350;2023-02-18T10:57:18;7.75;;;1.25;;
41667;SDS011;27356;50.920;5.350;2023-02-18T11:02:37;5.75;;;1.65;;
41667;SDS011;27356;50.920;5.350;2023-02-18T11:05:18;7.93;;;1.80;;
41667;SDS011;27356;50.920;5.350;2023-02-18T11:07:52;12.68;;;1.83;;
41667;SDS011;27356;50.920;5.350;2023-02-18T11:10:21;10.05;;;1.73;;
41667;SDS011;27356;50.920;5.350;2023-02-18T11:12:57;7.95;;;1.70;;
41667;SDS011;27356;50.920;5.350;2023-02-18T11:15:27;8.75;;;1.85;;
41667;SDS011;27356;50.920;5.350;2023-02-18T11:17:57;8.88;;;2.05;;
41667;SDS011;27356;50.920;5.350;2023-02-18T11:20:36;7.85;;;1.70;;
41667;SDS011;27356;50.920;5.350;2023-02-18T11:25:33;9.30;;;2.00;;
41667;SDS011;27356;50.920;5.350;2023-02-18T11:28:04;6.45;;;1.30;;
41667;SDS011;27356;50.920;5.350;2023-02-18T11:30:38;7.47;;;1.70;;
41667;SDS011;27356;50.920;5.350;2023-02-18T11:33:09;10.20;;;1.75;;
41667;SDS011;27356;50.920;5.350;2023-02-18T11:35:52;11.25;;;1.75;;
41667;SDS011;27356;50.920;5.350;2023-02-18T11:38:37;8.75;;;1.88;;
41667;SDS011;27356;50.920;5.350;2023-02-18T11:41:14;6.50;;;1.30;;
41667;SDS011;27356;50.920;5.350;2023-02-18T11:43:45;14.23;;;2.22;;
41667;SDS011;27356;50.920;5.350;2023-02-18T11:46:18;5.57;;;1.63;;
41667;SDS011;27356;50.920;5.350;2023-02-18T11:48:46;8.23;;;1.70;;
41667;SDS011;27356;50.920;5.350;2023-02-18T11:51:26;9.45;;;1.60;;
41667;SDS011;27356;50.920;5.350;2023-02-18T11:56:29;10.40;;;1.80;;
41667;SDS011;27356;50.920;5.350;2023-02-18T11:59:00;7.50;;;2.15;;
41667;SDS011;27356;50.920;5.350;2023-02-18T12:01:31;9.57;;;2.10;;
41667;SDS011;27356;50.920;5.350;2023-02-18T12:04:16;7.13;;;1.85;;
41667;SDS011;27356;50.920;5.350;2023-02-18T12:06:48;12.43;;;2.65;;
41667;SDS011;27356;50.920;5.350;2023-02-18T12:11:48;9.20;;;2.47;;
41667;SDS011;27356;50.920;5.350;2023-02-18T12:14:21;10.20;;;3.05;;
41667;SDS011;27356;50.920;5.350;2023-02-18T12:25:08;10.70;;;3.08;;
41667;SDS011;27356;50.920;5.350;2023-02-18T12:28:11;6.78;;;2.30;;
41667;SDS011;27356;50.920;5.350;2023-02-18T12:36:36;9.35;;;3.33;;
41667;SDS011;27356;50.920;5.350;2023-02-18T12:42:22;11.77;;;3.05;;
41667;SDS011;27356;50.920;5.350;2023-02-18T12:59:21;14.60;;;3.58;;
41667;SDS011;27356;50.920;5.350;2023-02-18T13:08:04;13.27;;;3.15;;
41667;SDS011;27356;50.920;5.350;2023-02-18T13:13:41;10.18;;;3.25;;
41667;SDS011;27356;50.920;5.350;2023-02-18T13:16:23;13.93;;;3.80;;
41667;SDS011;27356;50.920;5.350;2023-02-18T13:18:58;12.65;;;3.80;;
41667;SDS011;27356;50.920;5.350;2023-02-18T13:21:27;13.30;;;4.50;;
41667;SDS011;27356;50.920;5.350;2023-02-18T13:23:55;14.77;;;3.78;;
41667;SDS011;27356;50.920;5.350;2023-02-18T13:26:25;12.10;;;3.40;;
41667;SDS011;27356;50.920;5.350;2023-02-18T13:34:54;14.75;;;3.63;;
41667;SDS011;27356;50.920;5.350;2023-02-18T13:40:24;7.55;;;3.25;;
41667;SDS011;27356;50.920;5.350;2023-02-18T13:42:54;13.45;;;3.67;;
41667;SDS011;27356;50.920;5.350;2023-02-18T13:45:39;8.90;;;3.55;;
41667;SDS011;27356;50.920;5.350;2023-02-18T13:48:20;9.00;;;3.70;;
41667;SDS011;27356;50.920;5.350;2023-02-18T13:50:50;10.48;;;3.83;;
41667;SDS011;27356;50.920;5.350;2023-02-18T13:53:22;12.45;;;3.55;;
41667;SDS011;27356;50.920;5.350;2023-02-18T13:55:53;15.07;;;3.92;;
41667;SDS011;27356;50.920;5.350;2023-02-18T13:58:47;13.27;;;3.90;;
41667;SDS011;27356;50.920;5.350;2023-02-18T14:01:23;13.65;;;3.65;;
41667;SDS011;27356;50.920;5.350;2023-02-18T14:04:32;18.45;;;4.32;;
41667;SDS011;27356;50.920;5.350;2023-02-18T14:09:49;18.00;;;4.22;;
41667;SDS011;27356;50.920;5.350;2023-02-18T14:14:50;9.50;;;3.75;;
41667;SDS011;27356;50.920;5.350;2023-02-18T14:19:52;13.88;;;3.75;;
41667;SDS011;27356;50.920;5.350;2023-02-18T14:27:45;7.75;;;3.50;;
41667;SDS011;27356;50.920;5.350;2023-02-18T14:32:48;13.35;;;3.92;;
41667;SDS011;27356;50.920;5.350;2023-02-18T14:35:22;15.68;;;3.55;;
41667;SDS011;27356;50.920;5.350;2023-02-18T14:38:23;18.95;;;4.22;;
41667;SDS011;27356;50.920;5.350;2023-02-18T14:44:03;9.73;;;3.70;;
41667;SDS011;27356;50.920;5.350;2023-02-18T14:51:53;17.23;;;4.20;;
41667;SDS011;27356;50.920;5.350;2023-02-18T14:54:22;12.95;;;4.53;;
41667;SDS011;27356;50.920;5.350;2023-02-18T14:56:57;9.82;;;4.15;;
41667;SDS011;27356;50.920;5.350;2023-02-18T14:59:38;8.77;;;4.65;;
41667;SDS011;27356;50.920;5.350;2023-02-18T15:02:17;11.85;;;4.28;;
41667;SDS011;27356;50.920;5.350;2023-02-18T15:07:13;10.73;;;4.32;;
41667;SDS011;27356;50.920;5.350;2023-02-18T15:09:48;8.13;;;5.25;;
41667;SDS011;27356;50.920;5.350;2023-02-18T15:12:17;8.70;;;4.43;;
41667;SDS011;27356;50.920;5.350;2023-02-18T15:14:46;9.98;;;4.70;;
41667;SDS011;27356;50.920;5.350;2023-02-18T15:17:15;11.80;;;4.60;;
41667;SDS011;27356;50.920;5.350;2023-02-18T15:19:51;10.80;;;4.82;;
41667;SDS011;27356;50.920;5.350;2023-02-18T15:22:24;9.95;;;4.10;;
41667;SDS011;27356;50.920;5.350;2023-02-18T15:24:54;10.52;;;4.57;;
41667;SDS011;27356;50.920;5.350;2023-02-18T15:27:21;13.88;;;4.43;;
41667;SDS011;27356;50.920;5.350;2023-02-18T15:29:56;10.77;;;4.50;;
41667;SDS011;27356;50.920;5.350;2023-02-18T15:32:27;13.85;;;4.13;;
41667;SDS011;27356;50.920;5.350;2023-02-18T15:35:00;7.65;;;4.32;;
41667;SDS011;27356;50.920;5.350;2023-02-18T15:37:27;10.68;;;4.32;;
41667;SDS011;27356;50.920;5.350;2023-02-18T15:39:54;11.52;;;4.28;;
41667;SDS011;27356;50.920;5.350;2023-02-18T15:42:34;9.55;;;4.57;;
41667;SDS011;27356;50.920;5.350;2023-02-18T15:45:03;7.95;;;4.13;;
41667;SDS011;27356;50.920;5.350;2023-02-18T15:47:43;11.45;;;4.68;;
41667;SDS011;27356;50.920;5.350;2023-02-18T15:50:15;14.80;;;3.97;;
41667;SDS011;27356;50.920;5.350;2023-02-18T15:52:46;11.00;;;4.35;;
41667;SDS011;27356;50.920;5.350;2023-02-18T15:55:35;24.90;;;10.05;;
41667;SDS011;27356;50.920;5.350;2023-02-18T15:58:03;18.23;;;4.80;;
41667;SDS011;27356;50.920;5.350;2023-02-18T16:00:36;15.02;;;4.47;;
41667;SDS011;27356;50.920;5.350;2023-02-18T16:03:14;6.93;;;3.50;;
41667;SDS011;27356;50.920;5.350;2023-02-18T16:05:45;11.27;;;3.30;;
41667;SDS011;27356;50.920;5.350;2023-02-18T16:08:24;12.38;;;3.50;;
41667;SDS011;27356;50.920;5.350;2023-02-18T16:13:22;13.70;;;3.53;;
41667;SDS011;27356;50.920;5.350;2023-02-18T16:15:49;8.60;;;3.20;;
41667;SDS011;27356;50.920;5.350;2023-02-18T16:18:38;8.00;;;3.30;;
41667;SDS011;27356;50.920;5.350;2023-02-18T16:23:57;8.93;;;3.47;;
41667;SDS011;27356;50.920;5.350;2023-02-18T16:28:53;9.00;;;3.00;;
41667;SDS011;27356;50.920;5.350;2023-02-18T16:31:24;5.93;;;3.17;;
41667;SDS011;27356;50.920;5.350;2023-02-18T16:33:50;12.80;;;3.63;;
41667;SDS011;27356;50.920;5.350;2023-02-18T16:36:16;12.25;;;4.15;;
41667;SDS011;27356;50.920;5.350;2023-02-18T16:38:43;8.73;;;3.40;;
41667;SDS011;27356;50.920;5.350;2023-02-18T16:41:10;5.60;;;2.90;;
41667;SDS011;27356;50.920;5.350;2023-02-18T16:43:37;9.68;;;2.95;;
41667;SDS011;27356;50.920;5.350;2023-02-18T16:46:12;11.82;;;4.22;;
41667;SDS011;27356;50.920;5.350;2023-02-18T16:48:41;13.60;;;3.42;;
41667;SDS011;27356;50.920;5.350;2023-02-18T16:51:16;11.02;;;3.20;;
41667;SDS011;27356;50.920;5.350;2023-02-18T16:53:46;17.60;;;4.00;;
41667;SDS011;27356;50.920;5.350;2023-02-18T16:56:13;11.57;;;2.80;;
41667;SDS011;27356;50.920;5.350;2023-02-18T16:58:44;9.52;;;3.28;;
41667;SDS011;27356;50.920;5.350;2023-02-18T17:01:23;14.80;;;3.97;;
41667;SDS011;27356;50.920;5.350;2023-02-18T17:03:54;9.45;;;3.50;;
41667;SDS011;27356;50.920;5.350;2023-02-18T17:06:22;18.25;;;5.88;;
41667;SDS011;27356;50.920;5.350;2023-02-18T17:08:48;12.85;;;3.67;;
41667;SDS011;27356;50.920;5.350;2023-02-18T17:11:15;9.32;;;3.42;;
41667;SDS011;27356;50.920;5.350;2023-02-18T17:13:47;10.63;;;3.65;;
41667;SDS011;27356;50.920;5.350;2023-02-18T17:16:14;10.45;;;3.30;;
41667;SDS011;27356;50.920;5.350;2023-02-18T17:18:40;7.93;;;3.20;;
41667;SDS011;27356;50.920;5.350;2023-02-18T17:21:17;9.90;;;3.35;;
41667;SDS011;27356;50.920;5.350;2023-02-18T17:23:45;12.52;;;4.05;;
41667;SDS011;27356;50.920;5.350;2023-02-18T17:26:16;9.10;;;3.17;;
41667;SDS011;27356;50.920;5.350;2023-02-18T17:28:48;10.25;;;3.72;;
41667;SDS011;27356;50.920;5.350;2023-02-18T17:31:37;10.15;;;4.30;;
41667;SDS011;27356;50.920;5.350;2023-02-18T17:34:04;11.88;;;5.20;;
41667;SDS011;27356;50.920;5.350;2023-02-18T17:36:33;12.35;;;5.88;;
41667;SDS011;27356;50.920;5.350;2023-02-18T17:38:59;13.40;;;6.70;;